• Join FlightAware (Why Join?)
  • Login
  • US Flag 
09:11PM EDT


 

Airport Tracker/Info


-or-


 

Live Flight TrackerFlight Track Log ✈ ASQ4086 ✈ 05-May-2013 ✈ KIAH - KDAL

Flight Track Log - Related Links

Times and Time Zones

All times are in EDT time to prevent confusion due to time zone crossing. See the ASQ4086 flight status page for this flight to view local times or setup timezone preferences in your user account.

Time Position Orientation Groundspeed Altitude Reporting Facility
EDT Latitude Longitude Course Direction KTS MPH feet Rate Location/Type
04:52PM 29.9794 -95.3536 351° North 147 169 800  Level Houston Center
04:53PM 30.0031 -95.3578 351° North 178 205 2,000 2,640 Climbing Houston Center
04:55PM 30.1350 -95.3831 351° North 238 274 7,800 2,580 Climbing Houston Center
04:56PM 30.2039 -95.4000 348° North 250 288 10,200 1,740 Climbing Houston Center
04:57PM 30.2861 -95.4183 349° North 297 342 11,400 1,500 Climbing Houston Center
04:58PM 30.3750 -95.4400 348° North 322 371 13,400 1,800 Climbing Houston Center
04:59PM 30.4639 -95.4575 350° North 324 373 15,200 1,740 Climbing Houston Center
05:00PM 30.5736 -95.4850 348° North 333 383 17,100 1,440 Climbing Houston Center
05:01PM 30.6686 -95.5064 349° North 345 397 18,200 900 Climbing Houston Center
05:03PM 30.7875 -95.5308 350° North  Level FlightAware Approximate
05:03PM 30.8856 -95.5539 350° North 376 433 20,000  Level Houston Center
05:04PM 30.9942 -95.5797 348° North 391 450 20,000  Level Houston Center
05:05PM 31.1011 -95.6036 349° North 388 447 20,000  Level Houston Center
05:06PM 31.2086 -95.6286 349° North 389 448 20,000  Level Houston Center
05:07PM 31.2489 -95.6369 350° North 387 445 20,000  Level Fort Worth Center
05:08PM 31.3494 -95.6644 347° North 387 445 20,000  Level Fort Worth Center
05:09PM 31.5075 -95.7625 332° Northwest 383 441 20,000  Level Houston Center
05:10PM 31.6183 -95.8353 331° Northwest 380 437 20,000  Level Houston Center
05:11PM 31.7097 -95.8978 330° Northwest 378 435 20,000  Level Houston Center
05:12PM 31.8028 -95.9594 331° Northwest 381 438 20,000  Level Houston Center
05:14PM 31.8950 -96.0211 330° Northwest 379 436 20,000 -780 Level Houston Center
05:15PM 31.9869 -96.0819 331° Northwest 379 436 18,400 -1,920 Descending Houston Center
05:16PM 32.0775 -96.1458 329° Northwest 371 427 16,100 -2,160 Descending Fort Worth Center
05:17PM 32.1533 -96.1986 329° Northwest 340 391 14,100 -2,040 Descending Fort Worth Center
05:18PM 32.2331 -96.2492 332° Northwest 304 350 12,100 -1,860 Descending Fort Worth Center
05:19PM 32.2919 -96.2853 333° Northwest 273 314 10,400 -1,560 Descending Fort Worth Center
05:20PM 32.3569 -96.3264 332° Northwest 251 289 9,000 -720 Descending Fort Worth Center
05:21PM 32.4053 -96.3750 320° Northwest 251 289 9,000  Level Fort Worth Center
05:22PM 32.4664 -96.4358 320° Northwest 256 295 9,000 -480 Level Fort Worth Center
05:23PM 32.5128 -96.4847 318° Northwest 256 295 8,100 -1,260 Descending Fort Worth Center
05:24PM 32.5694 -96.5456 318° Northwest 251 289 6,500 -1,500 Descending Fort Worth Center
05:25PM 32.6156 -96.5922 320° Northwest 244 281 5,100 -1,140 Descending Fort Worth Center
05:26PM 32.6683 -96.6483 318° Northwest 244 281 4,300 -1,020 Descending Fort Worth Center
05:26PM 32.7000 -96.6833 317° Northwest 240 276 3,300 -1,260 Descending Dallas / Fort Worth TRACON
05:27PM 32.7500 -96.7333 320° Northwest 212 244 2,400 -660 Descending Dallas / Fort Worth TRACON
05:28PM 32.7833 -96.7667 320° Northwest 172 198 2,100 -540 Descending Dallas / Fort Worth TRACON
05:29PM 32.8167 -96.8000 320° Northwest 119 137 1,300 -840 Descending Dallas / Fort Worth TRACON